sensor_id;sensor_type;location;lat;lon;timestamp;P1;durP1;ratioP1;P2;durP2;ratioP2
78648;SDS011;67962;47.310;9.642;2023-12-22T00:01:54;0.30;;;0.20;;
78648;SDS011;67962;47.310;9.642;2023-12-22T00:04:20;0.63;;;0.30;;
78648;SDS011;67962;47.310;9.642;2023-12-22T00:06:45;0.77;;;0.30;;
78648;SDS011;67962;47.310;9.642;2023-12-22T00:09:13;0.30;;;0.30;;
78648;SDS011;67962;47.310;9.642;2023-12-22T00:11:39;0.30;;;0.20;;
78648;SDS011;67962;47.310;9.642;2023-12-22T00:14:04;0.45;;;0.22;;
78648;SDS011;67962;47.310;9.642;2023-12-22T00:16:30;0.40;;;0.20;;
78648;SDS011;67962;47.310;9.642;2023-12-22T00:18:56;0.63;;;0.30;;
78648;SDS011;67962;47.310;9.642;2023-12-22T00:21:22;0.30;;;0.20;;
78648;SDS011;67962;47.310;9.642;2023-12-22T00:23:48;0.77;;;0.30;;
78648;SDS011;67962;47.310;9.642;2023-12-22T00:26:13;1.65;;;0.50;;
78648;SDS011;67962;47.310;9.642;2023-12-22T00:28:40;1.15;;;0.40;;
78648;SDS011;67962;47.310;9.642;2023-12-22T00:31:06;0.52;;;0.40;;
78648;SDS011;67962;47.310;9.642;2023-12-22T00:33:32;1.35;;;0.30;;
78648;SDS011;67962;47.310;9.642;2023-12-22T00:35:58;0.45;;;0.38;;
78648;SDS011;67962;47.310;9.642;2023-12-22T00:38:24;2.67;;;0.38;;
78648;SDS011;67962;47.310;9.642;2023-12-22T00:40:49;1.75;;;0.20;;
78648;SDS011;67962;47.310;9.642;2023-12-22T00:43:15;0.28;;;0.20;;
78648;SDS011;67962;47.310;9.642;2023-12-22T00:45:41;0.52;;;0.30;;
78648;SDS011;67962;47.310;9.642;2023-12-22T00:48:06;0.90;;;0.30;;
78648;SDS011;67962;47.310;9.642;2023-12-22T00:50:32;2.13;;;0.43;;
78648;SDS011;67962;47.310;9.642;2023-12-22T00:52:58;1.25;;;0.50;;
78648;SDS011;67962;47.310;9.642;2023-12-22T00:55:23;0.80;;;0.40;;
78648;SDS011;67962;47.310;9.642;2023-12-22T00:57:49;0.65;;;0.40;;
78648;SDS011;67962;47.310;9.642;2023-12-22T01:00:15;2.78;;;0.88;;
78648;SDS011;67962;47.310;9.642;2023-12-22T01:02:41;0.68;;;0.50;;
78648;SDS011;67962;47.310;9.642;2023-12-22T01:05:07;0.50;;;0.30;;
78648;SDS011;67962;47.310;9.642;2023-12-22T01:07:33;1.08;;;0.45;;
78648;SDS011;67962;47.310;9.642;2023-12-22T01:09:59;0.63;;;0.30;;
78648;SDS011;67962;47.310;9.642;2023-12-22T01:12:26;1.80;;;0.30;;
78648;SDS011;67962;47.310;9.642;2023-12-22T01:14:53;1.60;;;0.40;;
78648;SDS011;67962;47.310;9.642;2023-12-22T01:17:19;0.68;;;0.30;;
78648;SDS011;67962;47.310;9.642;2023-12-22T01:19:45;0.63;;;0.40;;
78648;SDS011;67962;47.310;9.642;2023-12-22T01:22:10;2.80;;;0.47;;
78648;SDS011;67962;47.310;9.642;2023-12-22T01:24:36;0.38;;;0.30;;
78648;SDS011;67962;47.310;9.642;2023-12-22T01:27:04;1.20;;;0.50;;
78648;SDS011;67962;47.310;9.642;2023-12-22T01:29:30;0.80;;;0.30;;
78648;SDS011;67962;47.310;9.642;2023-12-22T01:31:56;0.75;;;0.40;;
78648;SDS011;67962;47.310;9.642;2023-12-22T01:34:21;0.70;;;0.32;;
78648;SDS011;67962;47.310;9.642;2023-12-22T01:36:47;1.92;;;0.30;;
78648;SDS011;67962;47.310;9.642;2023-12-22T01:39:13;1.55;;;0.40;;
78648;SDS011;67962;47.310;9.642;2023-12-22T01:41:38;3.33;;;0.68;;
78648;SDS011;67962;47.310;9.642;2023-12-22T01:44:04;0.82;;;0.40;;
78648;SDS011;67962;47.310;9.642;2023-12-22T01:46:29;1.58;;;0.40;;
78648;SDS011;67962;47.310;9.642;2023-12-22T01:48:56;1.20;;;0.38;;
78648;SDS011;67962;47.310;9.642;2023-12-22T01:51:23;1.75;;;0.55;;
78648;SDS011;67962;47.310;9.642;2023-12-22T01:53:49;1.17;;;0.50;;
78648;SDS011;67962;47.310;9.642;2023-12-22T01:56:15;2.33;;;0.85;;
78648;SDS011;67962;47.310;9.642;2023-12-22T01:58:41;1.15;;;0.77;;
78648;SDS011;67962;47.310;9.642;2023-12-22T02:01:06;1.83;;;0.55;;
78648;SDS011;67962;47.310;9.642;2023-12-22T02:03:32;4.32;;;0.80;;
78648;SDS011;67962;47.310;9.642;2023-12-22T02:05:58;2.10;;;0.70;;
78648;SDS011;67962;47.310;9.642;2023-12-22T02:08:24;2.38;;;0.73;;
78648;SDS011;67962;47.310;9.642;2023-12-22T02:10:52;2.40;;;0.60;;
78648;SDS011;67962;47.310;9.642;2023-12-22T02:13:18;1.80;;;0.50;;
78648;SDS011;67962;47.310;9.642;2023-12-22T02:15:44;2.85;;;0.70;;
78648;SDS011;67962;47.310;9.642;2023-12-22T02:18:16;0.50;;;0.32;;
78648;SDS011;67962;47.310;9.642;2023-12-22T02:20:45;0.85;;;0.40;;
78648;SDS011;67962;47.310;9.642;2023-12-22T02:23:12;1.13;;;0.40;;
78648;SDS011;67962;47.310;9.642;2023-12-22T02:25:38;1.42;;;0.50;;
78648;SDS011;67962;47.310;9.642;2023-12-22T02:28:05;1.10;;;0.50;;
78648;SDS011;67962;47.310;9.642;2023-12-22T02:30:38;2.15;;;0.55;;
78648;SDS011;67962;47.310;9.642;2023-12-22T02:33:09;2.20;;;0.50;;
78648;SDS011;67962;47.310;9.642;2023-12-22T02:35:37;2.95;;;0.50;;
78648;SDS011;67962;47.310;9.642;2023-12-22T02:38:06;2.90;;;0.65;;
78648;SDS011;67962;47.310;9.642;2023-12-22T02:40:33;0.60;;;0.30;;
78648;SDS011;67962;47.310;9.642;2023-12-22T02:43:00;1.55;;;0.50;;
78648;SDS011;67962;47.310;9.642;2023-12-22T02:45:27;2.45;;;0.85;;
78648;SDS011;67962;47.310;9.642;2023-12-22T02:47:54;0.95;;;0.73;;
78648;SDS011;67962;47.310;9.642;2023-12-22T02:50:19;2.85;;;0.50;;
78648;SDS011;67962;47.310;9.642;2023-12-22T02:52:45;1.27;;;0.40;;
78648;SDS011;67962;47.310;9.642;2023-12-22T02:55:11;3.60;;;0.60;;
78648;SDS011;67962;47.310;9.642;2023-12-22T02:57:37;1.25;;;0.50;;
78648;SDS011;67962;47.310;9.642;2023-12-22T03:00:02;1.23;;;0.55;;
78648;SDS011;67962;47.310;9.642;2023-12-22T03:02:28;1.67;;;0.40;;
78648;SDS011;67962;47.310;9.642;2023-12-22T03:04:54;3.47;;;0.80;;
78648;SDS011;67962;47.310;9.642;2023-12-22T03:07:20;0.30;;;0.30;;
78648;SDS011;67962;47.310;9.642;2023-12-22T03:09:45;2.58;;;0.50;;
78648;SDS011;67962;47.310;9.642;2023-12-22T03:12:11;0.82;;;0.40;;
78648;SDS011;67962;47.310;9.642;2023-12-22T03:14:37;1.80;;;0.52;;
78648;SDS011;67962;47.310;9.642;2023-12-22T03:17:04;2.00;;;0.60;;
78648;SDS011;67962;47.310;9.642;2023-12-22T03:19:31;0.93;;;0.50;;
78648;SDS011;67962;47.310;9.642;2023-12-22T03:21:57;2.35;;;0.75;;
78648;SDS011;67962;47.310;9.642;2023-12-22T03:24:23;2.70;;;0.55;;
78648;SDS011;67962;47.310;9.642;2023-12-22T03:26:50;2.70;;;0.82;;
78648;SDS011;67962;47.310;9.642;2023-12-22T03:29:16;2.03;;;0.55;;
78648;SDS011;67962;47.310;9.642;2023-12-22T03:31:42;2.33;;;0.60;;
78648;SDS011;67962;47.310;9.642;2023-12-22T03:34:09;2.10;;;0.50;;
78648;SDS011;67962;47.310;9.642;2023-12-22T03:36:35;2.85;;;0.43;;
78648;SDS011;67962;47.310;9.642;2023-12-22T03:39:00;1.35;;;0.40;;
78648;SDS011;67962;47.310;9.642;2023-12-22T03:41:27;1.98;;;0.50;;
78648;SDS011;67962;47.310;9.642;2023-12-22T03:43:54;1.40;;;0.50;;
78648;SDS011;67962;47.310;9.642;2023-12-22T03:46:20;1.08;;;0.50;;
78648;SDS011;67962;47.310;9.642;2023-12-22T03:48:46;1.80;;;0.47;;
78648;SDS011;67962;47.310;9.642;2023-12-22T03:51:12;1.45;;;0.40;;
78648;SDS011;67962;47.310;9.642;2023-12-22T03:53:39;1.27;;;0.47;;
78648;SDS011;67962;47.310;9.642;2023-12-22T03:56:06;0.93;;;0.50;;
78648;SDS011;67962;47.310;9.642;2023-12-22T03:58:33;1.42;;;0.47;;
78648;SDS011;67962;47.310;9.642;2023-12-22T04:00:59;0.35;;;0.30;;
78648;SDS011;67962;47.310;9.642;2023-12-22T04:03:25;1.30;;;0.63;;
78648;SDS011;67962;47.310;9.642;2023-12-22T04:05:51;0.85;;;0.40;;
78648;SDS011;67962;47.310;9.642;2023-12-22T04:08:17;0.30;;;0.30;;
78648;SDS011;67962;47.310;9.642;2023-12-22T04:10:43;0.40;;;0.30;;
78648;SDS011;67962;47.310;9.642;2023-12-22T04:13:09;0.60;;;0.40;;
78648;SDS011;67962;47.310;9.642;2023-12-22T04:15:35;1.63;;;0.40;;
78648;SDS011;67962;47.310;9.642;2023-12-22T04:18:01;1.85;;;0.40;;
78648;SDS011;67962;47.310;9.642;2023-12-22T04:20:26;2.08;;;0.40;;
78648;SDS011;67962;47.310;9.642;2023-12-22T04:22:52;0.40;;;0.38;;
78648;SDS011;67962;47.310;9.642;2023-12-22T04:25:18;0.60;;;0.32;;
78648;SDS011;67962;47.310;9.642;2023-12-22T04:27:43;0.90;;;0.30;;
78648;SDS011;67962;47.310;9.642;2023-12-22T04:30:10;0.55;;;0.40;;
78648;SDS011;67962;47.310;9.642;2023-12-22T04:32:36;0.80;;;0.40;;
78648;SDS011;67962;47.310;9.642;2023-12-22T04:35:02;0.65;;;0.40;;
78648;SDS011;67962;47.310;9.642;2023-12-22T04:37:28;0.40;;;0.40;;
78648;SDS011;67962;47.310;9.642;2023-12-22T04:39:53;1.33;;;0.30;;
78648;SDS011;67962;47.310;9.642;2023-12-22T04:42:19;4.20;;;0.80;;
78648;SDS011;67962;47.310;9.642;2023-12-22T04:44:45;2.35;;;0.70;;
78648;SDS011;67962;47.310;9.642;2023-12-22T04:47:10;1.15;;;0.40;;
78648;SDS011;67962;47.310;9.642;2023-12-22T04:49:37;1.67;;;0.70;;
78648;SDS011;67962;47.310;9.642;2023-12-22T04:52:03;2.33;;;0.55;;
78648;SDS011;67962;47.310;9.642;2023-12-22T04:54:29;1.75;;;0.60;;
78648;SDS011;67962;47.310;9.642;2023-12-22T04:56:55;2.15;;;0.40;;
78648;SDS011;67962;47.310;9.642;2023-12-22T04:59:20;1.92;;;0.57;;
78648;SDS011;67962;47.310;9.642;2023-12-22T05:01:46;1.05;;;0.30;;
78648;SDS011;67962;47.310;9.642;2023-12-22T05:04:12;1.70;;;0.60;;
78648;SDS011;67962;47.310;9.642;2023-12-22T05:06:37;1.77;;;0.50;;
78648;SDS011;67962;47.310;9.642;2023-12-22T05:09:03;2.92;;;0.60;;
78648;SDS011;67962;47.310;9.642;2023-12-22T05:11:29;3.60;;;0.73;;
78648;SDS011;67962;47.310;9.642;2023-12-22T05:13:55;3.58;;;0.52;;
78648;SDS011;67962;47.310;9.642;2023-12-22T05:16:20;2.63;;;0.73;;
78648;SDS011;67962;47.310;9.642;2023-12-22T05:18:46;3.42;;;0.93;;
78648;SDS011;67962;47.310;9.642;2023-12-22T05:21:14;6.75;;;1.00;;
78648;SDS011;67962;47.310;9.642;2023-12-22T05:23:40;5.55;;;1.10;;
78648;SDS011;67962;47.310;9.642;2023-12-22T05:26:06;3.33;;;0.60;;
78648;SDS011;67962;47.310;9.642;2023-12-22T05:28:32;3.13;;;0.60;;
78648;SDS011;67962;47.310;9.642;2023-12-22T05:30:57;3.63;;;1.00;;
78648;SDS011;67962;47.310;9.642;2023-12-22T05:33:23;3.53;;;1.00;;
78648;SDS011;67962;47.310;9.642;2023-12-22T05:35:49;4.80;;;0.80;;
78648;SDS011;67962;47.310;9.642;2023-12-22T05:38:14;5.38;;;0.93;;
78648;SDS011;67962;47.310;9.642;2023-12-22T05:40:40;2.55;;;0.82;;
78648;SDS011;67962;47.310;9.642;2023-12-22T05:43:06;5.18;;;1.20;;
78648;SDS011;67962;47.310;9.642;2023-12-22T05:45:32;3.85;;;0.88;;
78648;SDS011;67962;47.310;9.642;2023-12-22T05:47:58;4.45;;;1.00;;
78648;SDS011;67962;47.310;9.642;2023-12-22T05:50:23;4.28;;;0.85;;
78648;SDS011;67962;47.310;9.642;2023-12-22T05:52:49;4.32;;;0.93;;
78648;SDS011;67962;47.310;9.642;2023-12-22T05:55:14;7.30;;;1.10;;
78648;SDS011;67962;47.310;9.642;2023-12-22T05:57:40;3.65;;;0.80;;
78648;SDS011;67962;47.310;9.642;2023-12-22T06:00:06;5.55;;;1.20;;
78648;SDS011;67962;47.310;9.642;2023-12-22T06:02:34;5.15;;;1.05;;
78648;SDS011;67962;47.310;9.642;2023-12-22T06:05:00;6.45;;;1.52;;
78648;SDS011;67962;47.310;9.642;2023-12-22T06:07:26;2.78;;;0.95;;
78648;SDS011;67962;47.310;9.642;2023-12-22T06:09:52;8.63;;;1.52;;
78648;SDS011;67962;47.310;9.642;2023-12-22T06:12:18;4.07;;;1.00;;
78648;SDS011;67962;47.310;9.642;2023-12-22T06:14:43;7.25;;;1.48;;
78648;SDS011;67962;47.310;9.642;2023-12-22T06:17:09;5.78;;;1.05;;
78648;SDS011;67962;47.310;9.642;2023-12-22T06:19:35;6.60;;;1.52;;
78648;SDS011;67962;47.310;9.642;2023-12-22T06:22:01;5.97;;;1.20;;
78648;SDS011;67962;47.310;9.642;2023-12-22T06:24:27;3.15;;;0.93;;
78648;SDS011;67962;47.310;9.642;2023-12-22T06:26:53;10.07;;;1.40;;
78648;SDS011;67962;47.310;9.642;2023-12-22T06:29:18;5.68;;;1.20;;
78648;SDS011;67962;47.310;9.642;2023-12-22T06:31:44;5.18;;;1.20;;
78648;SDS011;67962;47.310;9.642;2023-12-22T06:34:10;6.88;;;1.25;;
78648;SDS011;67962;47.310;9.642;2023-12-22T06:36:36;5.55;;;1.08;;
78648;SDS011;67962;47.310;9.642;2023-12-22T06:39:01;4.68;;;1.13;;
78648;SDS011;67962;47.310;9.642;2023-12-22T06:41:28;5.70;;;1.40;;
78648;SDS011;67962;47.310;9.642;2023-12-22T06:43:55;6.35;;;1.17;;
78648;SDS011;67962;47.310;9.642;2023-12-22T06:46:22;6.45;;;1.33;;
78648;SDS011;67962;47.310;9.642;2023-12-22T06:48:50;6.18;;;1.20;;
78648;SDS011;67962;47.310;9.642;2023-12-22T06:53:49;5.75;;;1.42;;
78648;SDS011;67962;47.310;9.642;2023-12-22T06:58:42;6.72;;;1.27;;
78648;SDS011;67962;47.310;9.642;2023-12-22T07:01:07;5.20;;;0.95;;
78648;SDS011;67962;47.310;9.642;2023-12-22T07:03:33;7.53;;;1.40;;
78648;SDS011;67962;47.310;9.642;2023-12-22T07:05:59;4.72;;;0.95;;
78648;SDS011;67962;47.310;9.642;2023-12-22T07:08:25;5.32;;;1.20;;
78648;SDS011;67962;47.310;9.642;2023-12-22T07:10:50;6.30;;;1.30;;
78648;SDS011;67962;47.310;9.642;2023-12-22T07:13:16;6.03;;;1.23;;
78648;SDS011;67962;47.310;9.642;2023-12-22T07:15:42;5.82;;;1.00;;
78648;SDS011;67962;47.310;9.642;2023-12-22T07:18:07;7.13;;;1.23;;
78648;SDS011;67962;47.310;9.642;2023-12-22T07:20:33;5.82;;;1.15;;
78648;SDS011;67962;47.310;9.642;2023-12-22T07:22:59;4.43;;;1.00;;
78648;SDS011;67962;47.310;9.642;2023-12-22T07:25:25;7.45;;;2.42;;
78648;SDS011;67962;47.310;9.642;2023-12-22T07:27:50;15.80;;;7.50;;
78648;SDS011;67962;47.310;9.642;2023-12-22T07:30:16;5.45;;;1.70;;
78648;SDS011;67962;47.310;9.642;2023-12-22T07:32:43;5.30;;;1.40;;
78648;SDS011;67962;47.310;9.642;2023-12-22T07:35:10;9.95;;;1.58;;
78648;SDS011;67962;47.310;9.642;2023-12-22T07:37:35;8.10;;;1.30;;
78648;SDS011;67962;47.310;9.642;2023-12-22T07:40:01;3.88;;;1.30;;
78648;SDS011;67962;47.310;9.642;2023-12-22T07:42:28;9.25;;;1.25;;
78648;SDS011;67962;47.310;9.642;2023-12-22T07:44:53;4.90;;;1.40;;
78648;SDS011;67962;47.310;9.642;2023-12-22T07:47:19;6.85;;;1.30;;
78648;SDS011;67962;47.310;9.642;2023-12-22T07:49:45;4.45;;;1.00;;
78648;SDS011;67962;47.310;9.642;2023-12-22T07:52:10;7.18;;;1.30;;
78648;SDS011;67962;47.310;9.642;2023-12-22T07:54:36;2.95;;;0.95;;
78648;SDS011;67962;47.310;9.642;2023-12-22T07:57:02;5.45;;;1.30;;
78648;SDS011;67962;47.310;9.642;2023-12-22T07:59:27;5.22;;;1.10;;
78648;SDS011;67962;47.310;9.642;2023-12-22T08:01:53;3.58;;;1.30;;
78648;SDS011;67962;47.310;9.642;2023-12-22T08:04:19;4.85;;;1.50;;
78648;SDS011;67962;47.310;9.642;2023-12-22T08:06:44;6.13;;;1.17;;
78648;SDS011;67962;47.310;9.642;2023-12-22T08:09:11;5.00;;;1.05;;
78648;SDS011;67962;47.310;9.642;2023-12-22T08:11:36;8.82;;;1.30;;
78648;SDS011;67962;47.310;9.642;2023-12-22T08:14:02;2.45;;;0.80;;
78648;SDS011;67962;47.310;9.642;2023-12-22T08:16:28;7.47;;;1.20;;
78648;SDS011;67962;47.310;9.642;2023-12-22T08:18:54;4.88;;;1.10;;
78648;SDS011;67962;47.310;9.642;2023-12-22T08:21:19;6.05;;;1.23;;
78648;SDS011;67962;47.310;9.642;2023-12-22T08:23:45;6.07;;;1.13;;
78648;SDS011;67962;47.310;9.642;2023-12-22T08:26:10;5.80;;;0.98;;
78648;SDS011;67962;47.310;9.642;2023-12-22T08:28:37;7.28;;;1.20;;
78648;SDS011;67962;47.310;9.642;2023-12-22T08:31:03;5.15;;;1.13;;
78648;SDS011;67962;47.310;9.642;2023-12-22T08:33:29;6.95;;;2.17;;
78648;SDS011;67962;47.310;9.642;2023-12-22T08:35:56;5.18;;;1.23;;
78648;SDS011;67962;47.310;9.642;2023-12-22T08:38:22;4.55;;;1.00;;
78648;SDS011;67962;47.310;9.642;2023-12-22T08:40:47;4.97;;;0.82;;
78648;SDS011;67962;47.310;9.642;2023-12-22T08:43:14;3.75;;;0.95;;
78648;SDS011;67962;47.310;9.642;2023-12-22T08:45:40;2.92;;;0.85;;
78648;SDS011;67962;47.310;9.642;2023-12-22T08:48:06;4.35;;;1.10;;
78648;SDS011;67962;47.310;9.642;2023-12-22T08:50:33;3.58;;;0.90;;
78648;SDS011;67962;47.310;9.642;2023-12-22T08:52:59;4.53;;;0.85;;
78648;SDS011;67962;47.310;9.642;2023-12-22T08:55:25;1.88;;;0.88;;
78648;SDS011;67962;47.310;9.642;2023-12-22T08:57:51;2.72;;;0.60;;
78648;SDS011;67962;47.310;9.642;2023-12-22T09:00:16;3.75;;;1.30;;
78648;SDS011;67962;47.310;9.642;2023-12-22T09:02:42;2.08;;;0.70;;
78648;SDS011;67962;47.310;9.642;2023-12-22T09:05:08;2.17;;;0.70;;
78648;SDS011;67962;47.310;9.642;2023-12-22T09:07:33;5.45;;;1.30;;
78648;SDS011;67962;47.310;9.642;2023-12-22T09:09:59;4.60;;;0.95;;
78648;SDS011;67962;47.310;9.642;2023-12-22T09:12:25;2.85;;;0.82;;
78648;SDS011;67962;47.310;9.642;2023-12-22T09:14:50;3.28;;;0.90;;
78648;SDS011;67962;47.310;9.642;2023-12-22T09:17:16;3.08;;;0.70;;
78648;SDS011;67962;47.310;9.642;2023-12-22T09:19:42;2.72;;;0.73;;
78648;SDS011;67962;47.310;9.642;2023-12-22T09:22:08;4.30;;;0.90;;
78648;SDS011;67962;47.310;9.642;2023-12-22T09:24:33;2.95;;;0.80;;
78648;SDS011;67962;47.310;9.642;2023-12-22T09:26:59;3.50;;;0.90;;
78648;SDS011;67962;47.310;9.642;2023-12-22T09:29:28;3.10;;;0.70;;
78648;SDS011;67962;47.310;9.642;2023-12-22T09:31:55;3.33;;;0.73;;
78648;SDS011;67962;47.310;9.642;2023-12-22T09:34:21;2.22;;;0.70;;
78648;SDS011;67962;47.310;9.642;2023-12-22T09:36:46;2.03;;;0.60;;
78648;SDS011;67962;47.310;9.642;2023-12-22T09:39:12;5.60;;;0.80;;
78648;SDS011;67962;47.310;9.642;2023-12-22T09:41:42;2.58;;;0.73;;
78648;SDS011;67962;47.310;9.642;2023-12-22T09:44:12;1.92;;;0.70;;
78648;SDS011;67962;47.310;9.642;2023-12-22T09:46:40;1.02;;;0.45;;
78648;SDS011;67962;47.310;9.642;2023-12-22T09:49:08;1.58;;;0.50;;
78648;SDS011;67962;47.310;9.642;2023-12-22T09:51:34;4.10;;;0.70;;
78648;SDS011;67962;47.310;9.642;2023-12-22T09:54:01;3.40;;;0.70;;
78648;SDS011;67962;47.310;9.642;2023-12-22T09:56:29;2.95;;;0.65;;
78648;SDS011;67962;47.310;9.642;2023-12-22T09:58:55;2.22;;;0.77;;
78648;SDS011;67962;47.310;9.642;2023-12-22T10:01:22;1.75;;;0.60;;
78648;SDS011;67962;47.310;9.642;2023-12-22T10:03:48;1.13;;;0.50;;
78648;SDS011;67962;47.310;9.642;2023-12-22T10:06:14;1.60;;;0.47;;
78648;SDS011;67962;47.310;9.642;2023-12-22T10:08:42;1.30;;;0.40;;
78648;SDS011;67962;47.310;9.642;2023-12-22T10:11:09;1.42;;;0.60;;
78648;SDS011;67962;47.310;9.642;2023-12-22T10:13:36;2.55;;;0.90;;
78648;SDS011;67962;47.310;9.642;2023-12-22T10:16:04;3.22;;;0.68;;
78648;SDS011;67962;47.310;9.642;2023-12-22T10:18:32;0.57;;;0.40;;
78648;SDS011;67962;47.310;9.642;2023-12-22T10:20:58;0.80;;;0.40;;
78648;SDS011;67962;47.310;9.642;2023-12-22T10:23:24;1.20;;;0.70;;
78648;SDS011;67962;47.310;9.642;2023-12-22T10:25:50;2.55;;;0.50;;
78648;SDS011;67962;47.310;9.642;2023-12-22T10:28:16;2.35;;;0.60;;
78648;SDS011;67962;47.310;9.642;2023-12-22T10:30:42;1.95;;;0.98;;
78648;SDS011;67962;47.310;9.642;2023-12-22T10:33:11;10.15;;;2.72;;
78648;SDS011;67962;47.310;9.642;2023-12-22T10:35:36;2.05;;;0.57;;
78648;SDS011;67962;47.310;9.642;2023-12-22T10:38:03;1.45;;;1.13;;
78648;SDS011;67962;47.310;9.642;2023-12-22T10:40:29;1.50;;;0.70;;
78648;SDS011;67962;47.310;9.642;2023-12-22T10:42:55;0.93;;;0.43;;
78648;SDS011;67962;47.310;9.642;2023-12-22T10:45:20;1.15;;;0.60;;
78648;SDS011;67962;47.310;9.642;2023-12-22T10:47:48;2.08;;;0.90;;
78648;SDS011;67962;47.310;9.642;2023-12-22T10:50:18;1.02;;;0.70;;
78648;SDS011;67962;47.310;9.642;2023-12-22T10:52:53;2.72;;;0.80;;
78648;SDS011;67962;47.310;9.642;2023-12-22T10:55:19;4.05;;;0.57;;
78648;SDS011;67962;47.310;9.642;2023-12-22T10:57:48;1.67;;;0.52;;
78648;SDS011;67962;47.310;9.642;2023-12-22T11:00:16;2.40;;;0.90;;
78648;SDS011;67962;47.310;9.642;2023-12-22T11:02:47;2.85;;;0.50;;
78648;SDS011;67962;47.310;9.642;2023-12-22T11:05:16;5.22;;;0.90;;
78648;SDS011;67962;47.310;9.642;2023-12-22T11:07:47;3.63;;;0.60;;
78648;SDS011;67962;47.310;9.642;2023-12-22T11:10:14;1.35;;;0.70;;
78648;SDS011;67962;47.310;9.642;2023-12-22T11:12:45;1.27;;;0.40;;
78648;SDS011;67962;47.310;9.642;2023-12-22T11:15:13;1.98;;;0.65;;
78648;SDS011;67962;47.310;9.642;2023-12-22T11:17:41;2.17;;;0.50;;
78648;SDS011;67962;47.310;9.642;2023-12-22T11:20:12;3.85;;;0.70;;
78648;SDS011;67962;47.310;9.642;2023-12-22T11:22:38;1.77;;;0.60;;
78648;SDS011;67962;47.310;9.642;2023-12-22T11:25:06;2.65;;;0.60;;
78648;SDS011;67962;47.310;9.642;2023-12-22T11:27:34;2.47;;;0.60;;
78648;SDS011;67962;47.310;9.642;2023-12-22T11:30:02;2.78;;;1.00;;
78648;SDS011;67962;47.310;9.642;2023-12-22T11:32:33;2.42;;;1.00;;
78648;SDS011;67962;47.310;9.642;2023-12-22T11:35:00;1.65;;;0.80;;
78648;SDS011;67962;47.310;9.642;2023-12-22T11:37:26;7.50;;;3.95;;
78648;SDS011;67962;47.310;9.642;2023-12-22T11:39:55;4.47;;;1.80;;
78648;SDS011;67962;47.310;9.642;2023-12-22T11:42:23;5.18;;;1.65;;
78648;SDS011;67962;47.310;9.642;2023-12-22T11:44:57;3.60;;;1.52;;
78648;SDS011;67962;47.310;9.642;2023-12-22T11:47:24;3.70;;;1.52;;
78648;SDS011;67962;47.310;9.642;2023-12-22T11:49:50;4.55;;;1.70;;
78648;SDS011;67962;47.310;9.642;2023-12-22T11:52:17;1.98;;;0.77;;
78648;SDS011;67962;47.310;9.642;2023-12-22T11:54:50;1.63;;;0.77;;
78648;SDS011;67962;47.310;9.642;2023-12-22T11:59:55;3.80;;;0.90;;
78648;SDS011;67962;47.310;9.642;2023-12-22T12:02:21;2.15;;;1.00;;
78648;SDS011;67962;47.310;9.642;2023-12-22T12:04:48;5.00;;;2.20;;
78648;SDS011;67962;47.310;9.642;2023-12-22T12:10:04;4.32;;;1.40;;
78648;SDS011;67962;47.310;9.642;2023-12-22T12:12:31;2.75;;;1.20;;
78648;SDS011;67962;47.310;9.642;2023-12-22T12:14:59;3.63;;;1.25;;
78648;SDS011;67962;47.310;9.642;2023-12-22T12:17:32;1.58;;;0.80;;
78648;SDS011;67962;47.310;9.642;2023-12-22T12:19:58;2.60;;;0.93;;
78648;SDS011;67962;47.310;9.642;2023-12-22T12:22:24;2.25;;;0.95;;
78648;SDS011;67962;47.310;9.642;2023-12-22T12:24:51;1.67;;;1.00;;
78648;SDS011;67962;47.310;9.642;2023-12-22T12:27:17;3.05;;;1.40;;
78648;SDS011;67962;47.310;9.642;2023-12-22T12:29:44;1.25;;;0.80;;
78648;SDS011;67962;47.310;9.642;2023-12-22T12:32:10;2.63;;;0.85;;
78648;SDS011;67962;47.310;9.642;2023-12-22T12:34:42;0.50;;;0.40;;
78648;SDS011;67962;47.310;9.642;2023-12-22T12:37:08;1.90;;;0.77;;
78648;SDS011;67962;47.310;9.642;2023-12-22T12:39:34;0.98;;;0.57;;
78648;SDS011;67962;47.310;9.642;2023-12-22T12:42:00;1.25;;;0.40;;
78648;SDS011;67962;47.310;9.642;2023-12-22T12:44:27;2.40;;;0.50;;
78648;SDS011;67962;47.310;9.642;2023-12-22T12:46:57;1.42;;;0.40;;
78648;SDS011;67962;47.310;9.642;2023-12-22T12:49:23;0.73;;;0.40;;
78648;SDS011;67962;47.310;9.642;2023-12-22T12:51:52;0.57;;;0.30;;
78648;SDS011;67962;47.310;9.642;2023-12-22T12:54:18;0.55;;;0.30;;
78648;SDS011;67962;47.310;9.642;2023-12-22T12:56:45;0.40;;;0.40;;
78648;SDS011;67962;47.310;9.642;2023-12-22T12:59:12;1.45;;;0.90;;
78648;SDS011;67962;47.310;9.642;2023-12-22T13:01:45;1.90;;;0.90;;
78648;SDS011;67962;47.310;9.642;2023-12-22T13:04:12;1.48;;;0.90;;
78648;SDS011;67962;47.310;9.642;2023-12-22T13:06:48;2.15;;;1.00;;
78648;SDS011;67962;47.310;9.642;2023-12-22T13:09:15;1.55;;;0.60;;
78648;SDS011;67962;47.310;9.642;2023-12-22T13:11:42;1.00;;;0.77;;
78648;SDS011;67962;47.310;9.642;2023-12-22T13:14:11;1.50;;;1.05;;
78648;SDS011;67962;47.310;9.642;2023-12-22T13:16:38;1.17;;;0.73;;
78648;SDS011;67962;47.310;9.642;2023-12-22T13:19:04;4.88;;;2.10;;
78648;SDS011;67962;47.310;9.642;2023-12-22T13:21:30;3.83;;;1.70;;
78648;SDS011;67962;47.310;9.642;2023-12-22T13:24:12;3.17;;;1.73;;
78648;SDS011;67962;47.310;9.642;2023-12-22T13:26:41;1.75;;;1.00;;
78648;SDS011;67962;47.310;9.642;2023-12-22T13:29:08;2.33;;;1.25;;
78648;SDS011;67962;47.310;9.642;2023-12-22T13:31:41;2.15;;;1.30;;
78648;SDS011;67962;47.310;9.642;2023-12-22T13:34:11;2.72;;;1.90;;
78648;SDS011;67962;47.310;9.642;2023-12-22T13:36:38;4.43;;;2.78;;
78648;SDS011;67962;47.310;9.642;2023-12-22T13:39:07;3.38;;;2.00;;
78648;SDS011;67962;47.310;9.642;2023-12-22T13:41:34;1.17;;;1.00;;
78648;SDS011;67962;47.310;9.642;2023-12-22T13:44:06;1.10;;;0.80;;
78648;SDS011;67962;47.310;9.642;2023-12-22T13:46:33;3.00;;;2.20;;
78648;SDS011;67962;47.310;9.642;2023-12-22T13:49:01;0.70;;;0.52;;
78648;SDS011;67962;47.310;9.642;2023-12-22T13:51:27;2.75;;;1.65;;
78648;SDS011;67962;47.310;9.642;2023-12-22T13:54:03;1.60;;;1.00;;
78648;SDS011;67962;47.310;9.642;2023-12-22T13:56:35;1.10;;;0.70;;
78648;SDS011;67962;47.310;9.642;2023-12-22T13:59:02;0.63;;;0.52;;
78648;SDS011;67962;47.310;9.642;2023-12-22T14:01:29;1.83;;;1.13;;
78648;SDS011;67962;47.310;9.642;2023-12-22T14:03:55;2.40;;;1.63;;
78648;SDS011;67962;47.310;9.642;2023-12-22T14:06:23;3.65;;;1.65;;
78648;SDS011;67962;47.310;9.642;2023-12-22T14:08:49;2.72;;;1.42;;
78648;SDS011;67962;47.310;9.642;2023-12-22T14:11:15;3.03;;;1.83;;
78648;SDS011;67962;47.310;9.642;2023-12-22T14:13:41;1.70;;;0.93;;
78648;SDS011;67962;47.310;9.642;2023-12-22T14:16:06;1.98;;;1.40;;
78648;SDS011;67962;47.310;9.642;2023-12-22T14:18:32;4.57;;;3.25;;
78648;SDS011;67962;47.310;9.642;2023-12-22T14:20:58;3.97;;;2.55;;
78648;SDS011;67962;47.310;9.642;2023-12-22T14:23:24;0.75;;;0.50;;
78648;SDS011;67962;47.310;9.642;2023-12-22T14:25:50;0.70;;;0.50;;
78648;SDS011;67962;47.310;9.642;2023-12-22T14:28:16;0.70;;;0.40;;
78648;SDS011;67962;47.310;9.642;2023-12-22T14:30:41;0.57;;;0.50;;
78648;SDS011;67962;47.310;9.642;2023-12-22T14:33:07;1.40;;;0.93;;
78648;SDS011;67962;47.310;9.642;2023-12-22T14:35:34;1.92;;;1.48;;
78648;SDS011;67962;47.310;9.642;2023-12-22T14:38:00;2.85;;;1.70;;
78648;SDS011;67962;47.310;9.642;2023-12-22T14:40:26;1.58;;;1.00;;
78648;SDS011;67962;47.310;9.642;2023-12-22T14:42:51;2.38;;;1.60;;
78648;SDS011;67962;47.310;9.642;2023-12-22T14:45:17;2.63;;;0.80;;
78648;SDS011;67962;47.310;9.642;2023-12-22T14:47:43;1.70;;;1.08;;
78648;SDS011;67962;47.310;9.642;2023-12-22T14:50:08;2.00;;;1.20;;
78648;SDS011;67962;47.310;9.642;2023-12-22T14:52:34;1.10;;;0.80;;
78648;SDS011;67962;47.310;9.642;2023-12-22T14:55:00;2.28;;;1.20;;